Time;durP1;ratioP1;P1;durP2;ratioP2;P2;SDS_P1;SDS_P2;PMS_P1;PMS_P2;Temp;Humidity;BMP_temperature;BMP_pressure;BME280_temperature;BME280_humidity;BME280_pressure;Samples;Min_cycle;Max_cycle;Signal;HPM_P1;HPM_P2
2021/04/13 00:01:12;;;;;;;35.97;19.45;;;-0.20;99.90;;;;;;4873081;29;20132;-74
2021/04/13 00:03:43;;;;;;;34.20;18.80;;;-0.10;99.90;;;;;;4876767;29;20116;-76
2021/04/13 00:06:13;;;;;;;39.10;19.35;;;0.00;99.90;;;;;;4890524;29;20052;-74
2021/04/13 00:08:41;;;;;;;35.60;19.83;;;0.00;99.90;;;;;;4876247;29;20065;-76
2021/04/13 00:11:10;;;;;;;41.40;19.95;;;0.10;99.90;;;;;;4905803;29;20465;-75
2021/04/13 00:13:41;;;;;;;41.92;18.27;;;0.10;99.90;;;;;;4875970;29;20416;-76
2021/04/13 00:16:11;;;;;;;36.63;19.83;;;0.20;99.90;;;;;;4889792;29;20724;-75
2021/04/13 00:18:42;;;;;;;32.35;16.98;;;0.30;99.90;;;;;;4875165;29;20347;-75
2021/04/13 00:21:21;;;;;;;33.13;18.63;;;0.30;99.90;;;;;;4889948;29;20429;-75
2021/04/13 00:23:48;;;;;;;30.10;16.65;;;0.30;99.90;;;;;;4907302;29;20057;-75
2021/04/13 00:26:23;;;;;;;33.15;17.67;;;0.20;99.90;;;;;;4891036;29;20393;-75
2021/04/13 00:28:51;;;;;;;31.45;17.45;;;0.30;99.90;;;;;;4887722;29;20056;-76
2021/04/13 00:34:23;;;;;;;27.35;15.63;;;0.30;99.90;;;;;;4883742;29;20125;-75
2021/04/13 00:36:52;;;;;;;31.48;16.40;;;0.30;99.90;;;;;;4869548;29;20128;-75
2021/04/13 00:39:24;;;;;;;30.67;16.25;;;0.20;99.90;;;;;;4879926;29;20052;-76
2021/04/13 00:42:12;;;;;;;35.15;15.95;;;0.30;99.90;;;;;;4902944;29;20052;-75
2021/04/13 00:44:52;;;;;;;34.40;16.98;;;0.30;99.90;;;;;;4887876;29;20056;-75
2021/04/13 00:47:28;;;;;;;26.60;15.27;;;0.30;99.90;;;;;;4855072;29;20053;-75
2021/04/13 00:49:59;;;;;;;27.88;14.88;;;0.40;99.90;;;;;;4882149;29;20059;-75
2021/04/13 00:52:39;;;;;;;26.52;15.30;;;0.40;99.90;;;;;;4906579;29;20052;-75
2021/04/13 00:55:10;;;;;;;27.17;14.50;;;0.40;99.90;;;;;;4874539;29;20135;-74
2021/04/13 00:57:56;;;;;;;32.67;16.50;;;0.40;99.90;;;;;;4889816;29;20067;-75
2021/04/13 01:00:27;;;;;;;33.08;16.45;;;0.50;99.90;;;;;;4859530;29;20057;-75
2021/04/13 01:03:00;;;;;;;25.08;14.50;;;0.50;99.90;;;;;;4891159;29;20080;-75
2021/04/13 01:05:39;;;;;;;27.70;15.75;;;0.50;99.90;;;;;;4890408;29;20051;-76
2021/04/13 01:08:36;;;;;;;26.60;15.00;;;0.50;99.90;;;;;;4905675;29;20060;-74
2021/04/13 01:11:27;;;;;;;32.10;17.42;;;0.50;99.90;;;;;;4875046;29;20053;-75
2021/04/13 01:13:56;;;;;;;30.42;17.40;;;0.50;99.90;;;;;;4877868;29;20653;-75
2021/04/13 01:16:39;;;;;;;32.25;17.08;;;0.50;99.90;;;;;;4883354;29;20048;-76
2021/04/13 01:19:28;;;;;;;34.95;18.88;;;0.60;99.90;;;;;;4890878;29;20063;-75
2021/04/13 01:22:06;;;;;;;42.28;19.30;;;0.70;99.90;;;;;;4874048;29;20079;-76
2021/04/13 01:24:37;;;;;;;38.53;19.25;;;0.70;99.90;;;;;;4871879;29;20055;-76
2021/04/13 01:27:10;;;;;;;34.92;20.23;;;0.70;99.90;;;;;;4871671;29;20059;-76
2021/04/13 01:29:37;;;;;;;37.22;20.63;;;0.80;99.90;;;;;;4872284;29;20061;-76
2021/04/13 01:32:06;;;;;;;38.88;21.67;;;0.80;99.90;;;;;;4860209;29;20064;-75
2021/04/13 01:34:44;;;;;;;37.20;20.92;;;0.90;99.90;;;;;;4891476;29;20200;-75
2021/04/13 01:37:30;;;;;;;39.70;22.38;;;0.90;99.90;;;;;;4893594;29;20059;-76
2021/04/13 01:42:39;;;;;;;47.72;23.83;;;0.90;99.90;;;;;;4903157;29;20052;-75
2021/04/13 01:45:10;;;;;;;47.30;24.17;;;1.00;99.90;;;;;;4889099;29;20704;-74
2021/04/13 01:47:38;;;;;;;46.80;25.20;;;1.00;99.90;;;;;;4875068;29;20052;-75
2021/04/13 01:50:16;;;;;;;48.40;25.17;;;1.00;99.90;;;;;;4893932;29;20052;-75
2021/04/13 01:52:47;;;;;;;47.85;26.80;;;1.00;99.90;;;;;;4893911;29;20385;-75
2021/04/13 01:55:26;;;;;;;50.10;26.98;;;1.00;99.90;;;;;;4877811;29;20576;-74
2021/04/13 01:58:08;;;;;;;52.83;25.77;;;1.00;99.90;;;;;;4888325;29;20504;-76
2021/04/13 02:00:53;;;;;;;51.28;28.38;;;1.00;99.90;;;;;;4905990;29;20084;-75
2021/04/13 02:03:34;;;;;;;58.53;29.88;;;1.00;99.90;;;;;;4875912;29;20045;-75
2021/04/13 02:06:21;;;;;;;55.78;29.33;;;1.00;99.90;;;;;;4877168;29;20178;-75
2021/04/13 02:08:58;;;;;;;62.97;30.23;;;1.00;99.90;;;;;;4879712;29;20060;-75
2021/04/13 02:11:34;;;;;;;61.95;30.42;;;1.00;99.90;;;;;;4885853;29;20063;-75
2021/04/13 02:14:34;;;;;;;63.00;32.25;;;1.00;99.90;;;;;;4860733;29;20052;-75
2021/04/13 02:17:10;;;;;;;58.50;31.17;;;0.90;99.90;;;;;;4874674;29;20049;-75
2021/04/13 02:19:37;;;;;;;63.60;31.27;;;0.90;99.90;;;;;;4889894;29;20048;-75
2021/04/13 02:22:15;;;;;;;66.38;33.15;;;0.90;99.90;;;;;;4890694;29;20080;-74
2021/04/13 02:24:42;;;;;;;65.43;34.25;;;0.80;99.90;;;;;;4878198;29;20041;-75
2021/04/13 02:27:15;;;;;;;74.60;36.38;;;0.80;99.90;;;;;;4889295;29;20059;-76
2021/04/13 02:29:51;;;;;;;72.45;33.83;;;0.80;99.90;;;;;;4858634;29;20055;-75
2021/04/13 02:32:24;;;;;;;73.15;35.90;;;0.80;99.90;;;;;;4876857;29;20068;-74
2021/04/13 02:34:54;;;;;;;74.28;35.63;;;0.80;99.90;;;;;;4905896;29;20053;-75
2021/04/13 02:37:40;;;;;;;78.78;37.10;;;0.70;99.90;;;;;;4891972;29;20050;-74
2021/04/13 02:40:09;;;;;;;77.95;38.30;;;0.60;99.90;;;;;;4893648;29;20721;-75
2021/04/13 02:42:41;;;;;;;78.45;37.45;;;0.60;99.90;;;;;;4890476;29;20444;-75
2021/04/13 02:45:33;;;;;;;76.88;38.70;;;0.50;99.90;;;;;;4859428;29;20060;-75
2021/04/13 02:48:11;;;;;;;83.55;40.40;;;0.50;99.90;;;;;;4874128;29;20748;-75
2021/04/13 02:50:42;;;;;;;85.07;43.08;;;0.50;99.90;;;;;;4874369;29;20052;-75
2021/04/13 02:53:10;;;;;;;88.82;41.05;;;0.50;99.90;;;;;;4873219;29;20061;-75
2021/04/13 02:55:39;;;;;;;96.25;44.05;;;0.50;99.90;;;;;;4865729;29;20052;-76
2021/04/13 02:58:10;;;;;;;88.78;42.47;;;0.40;99.90;;;;;;4875594;29;20068;-76
2021/04/13 03:00:54;;;;;;;92.85;44.30;;;0.40;99.90;;;;;;4883032;29;20053;-75
2021/04/13 03:03:34;;;;;;;93.03;44.53;;;0.30;99.90;;;;;;4907815;29;20055;-75
2021/04/13 03:06:01;;;;;;;102.25;45.47;;;0.40;99.90;;;;;;4888642;29;20056;-75
2021/04/13 03:08:33;;;;;;;89.47;45.28;;;0.30;99.90;;;;;;4889649;29;20079;-74
2021/04/13 03:11:15;;;;;;;109.05;49.08;;;0.20;99.90;;;;;;4842326;29;20056;-75
2021/04/13 03:13:43;;;;;;;104.85;47.70;;;0.20;99.90;;;;;;4888543;29;20048;-74
2021/04/13 03:16:12;;;;;;;103.20;48.78;;;0.20;99.90;;;;;;4871883;29;20504;-75
2021/04/13 03:18:47;;;;;;;106.82;48.47;;;0.20;99.90;;;;;;4874083;29;20423;-75
2021/04/13 03:21:18;;;;;;;96.65;48.25;;;0.30;99.90;;;;;;4904434;29;20057;-75
2021/04/13 03:23:46;;;;;;;94.32;47.25;;;0.30;99.90;;;;;;4873333;29;20504;-75
2021/04/13 03:26:33;;;;;;;102.28;49.55;;;0.30;99.90;;;;;;4874838;29;20527;-76
2021/04/13 03:29:05;;;;;;;95.47;49.03;;;0.30;99.90;;;;;;4889520;29;20057;-76
2021/04/13 03:31:35;;;;;;;97.10;47.50;;;0.40;99.90;;;;;;4858139;29;20234;-76
2021/04/13 03:34:03;;;;;;;110.95;48.30;;;0.40;99.90;;;;;;4892802;29;20064;-76
2021/04/13 03:36:31;;;;;;;98.88;48.65;;;0.40;99.90;;;;;;4867559;29;20056;-76
2021/04/13 03:39:03;;;;;;;104.57;47.75;;;0.40;99.90;;;;;;4876381;29;20076;-75
2021/04/13 03:41:31;;;;;;;104.55;46.47;;;0.40;99.90;;;;;;4874112;29;20045;-75
2021/04/13 03:44:03;;;;;;;96.53;48.28;;;0.50;99.90;;;;;;4891080;29;20572;-75
2021/04/13 03:46:33;;;;;;;98.03;48.47;;;0.50;99.90;;;;;;4878941;29;20057;-75
2021/04/13 03:49:02;;;;;;;100.82;49.50;;;0.60;99.90;;;;;;4886602;29;20544;-76
2021/04/13 03:51:34;;;;;;;96.40;46.10;;;0.60;99.90;;;;;;4872928;29;20525;-74
2021/04/13 03:54:19;;;;;;;95.18;45.72;;;0.60;99.90;;;;;;4878785;29;20515;-75
2021/04/13 03:56:45;;;;;;;94.65;44.13;;;0.60;99.90;;;;;;4890895;29;20063;-76
2021/04/13 03:59:22;;;;;;;95.15;45.38;;;0.60;99.90;;;;;;4891212;29;20674;-76
2021/04/13 04:01:50;;;;;;;92.22;46.05;;;0.60;99.90;;;;;;4891065;29;20059;-76
2021/04/13 04:04:32;;;;;;;80.55;42.03;;;0.60;99.90;;;;;;4876653;29;20048;-76
2021/04/13 04:07:24;;;;;;;96.47;46.10;;;0.60;99.90;;;;;;4887341;29;20414;-74
2021/04/13 04:09:51;;;;;;;90.90;46.88;;;0.60;99.90;;;;;;4872680;29;20101;-75
2021/04/13 04:12:26;;;;;;;86.25;43.67;;;0.60;99.90;;;;;;4871637;29;20523;-75
2021/04/13 04:15:04;;;;;;;95.55;46.08;;;0.60;99.90;;;;;;4872396;29;20055;-76
2021/04/13 04:17:33;;;;;;;88.70;43.60;;;0.60;99.90;;;;;;4885490;29;20041;-75
2021/04/13 04:20:09;;;;;;;88.35;43.78;;;0.50;99.90;;;;;;4856134;29;20331;-75
2021/04/13 04:22:46;;;;;;;92.07;45.65;;;0.50;99.90;;;;;;4882495;29;20060;-75
2021/04/13 04:25:25;;;;;;;94.45;44.03;;;0.50;99.90;;;;;;4902612;29;20080;-75
2021/04/13 04:27:57;;;;;;;91.75;44.97;;;0.50;99.90;;;;;;4903278;29;20053;-75
2021/04/13 04:30:27;;;;;;;84.40;43.72;;;0.60;99.90;;;;;;4886430;29;20092;-75
2021/04/13 04:32:55;;;;;;;94.68;45.47;;;0.60;99.90;;;;;;4886986;29;20098;-75
2021/04/13 04:35:34;;;;;;;90.25;46.05;;;0.60;99.90;;;;;;4895096;29;20061;-76
2021/04/13 04:38:04;;;;;;;88.00;42.90;;;0.60;99.90;;;;;;4885903;29;20144;-75
2021/04/13 04:40:31;;;;;;;87.93;43.50;;;0.60;99.90;;;;;;4871103;29;20084;-75
2021/04/13 04:43:04;;;;;;;86.57;42.42;;;0.70;99.90;;;;;;4881631;29;20079;-76
2021/04/13 04:45:30;;;;;;;85.93;43.30;;;0.70;99.90;;;;;;4880769;29;20056;-75
2021/04/13 04:47:57;;;;;;;85.28;43.97;;;0.70;99.90;;;;;;4879945;29;20064;-75
2021/04/13 04:50:24;;;;;;;86.97;42.80;;;0.70;99.90;;;;;;4889166;29;20064;-75
2021/04/13 04:52:51;;;;;;;85.85;41.92;;;0.70;99.90;;;;;;4885665;29;20068;-75
2021/04/13 04:55:18;;;;;;;88.20;44.45;;;0.70;99.90;;;;;;4889107;29;20067;-75
2021/04/13 04:57:44;;;;;;;87.68;44.47;;;0.70;99.90;;;;;;4890361;29;20107;-75
2021/04/13 05:00:11;;;;;;;80.05;41.95;;;0.80;99.90;;;;;;4872251;29;20053;-75
2021/04/13 05:02:38;;;;;;;80.40;43.47;;;0.80;99.90;;;;;;4871813;29;20053;-75
2021/04/13 05:05:05;;;;;;;84.40;42.45;;;0.90;99.90;;;;;;4878037;29;20092;-75
2021/04/13 05:07:32;;;;;;;77.88;43.33;;;0.90;99.90;;;;;;4879274;29;20081;-75
2021/04/13 05:09:58;;;;;;;85.00;44.67;;;1.00;99.90;;;;;;4890424;29;20052;-75
2021/04/13 05:12:24;;;;;;;93.88;41.75;;;0.90;99.90;;;;;;4888157;29;20056;-75
2021/04/13 05:14:51;;;;;;;82.45;45.00;;;0.90;99.90;;;;;;4899339;29;20523;-76
2021/04/13 05:17:17;;;;;;;82.05;43.28;;;0.90;99.90;;;;;;4903492;29;20223;-75
2021/04/13 05:19:44;;;;;;;79.03;42.40;;;1.00;99.90;;;;;;4886433;29;20044;-76
2021/04/13 05:22:11;;;;;;;78.03;40.33;;;1.00;99.90;;;;;;4890189;29;20597;-75
2021/04/13 05:24:39;;;;;;;95.05;43.25;;;1.10;99.90;;;;;;4890447;29;20059;-75
2021/04/13 05:27:06;;;;;;;80.55;40.83;;;1.00;99.90;;;;;;4888146;29;20053;-75
2021/04/13 05:29:32;;;;;;;89.50;44.85;;;1.00;99.90;;;;;;4884905;29;20049;-75
2021/04/13 05:31:59;;;;;;;85.10;45.25;;;1.10;99.90;;;;;;4894655;29;20080;-75
2021/04/13 05:34:26;;;;;;;82.82;42.15;;;1.10;99.90;;;;;;4883008;29;20516;-75
2021/04/13 05:36:54;;;;;;;77.63;41.47;;;1.10;99.90;;;;;;4861105;29;20083;-77
2021/04/13 05:39:21;;;;;;;76.70;42.40;;;1.10;99.90;;;;;;4905425;29;20148;-77
2021/04/13 05:41:49;;;;;;;82.68;41.88;;;1.10;99.90;;;;;;4884979;29;20055;-78
2021/04/13 05:44:19;;;;;;;69.85;38.97;;;1.20;99.90;;;;;;4870344;29;20047;-76
2021/04/13 05:46:45;;;;;;;83.60;44.03;;;1.20;99.90;;;;;;4885330;29;20420;-77
2021/04/13 05:49:12;;;;;;;85.22;44.17;;;1.20;99.90;;;;;;4890559;29;20153;-77
2021/04/13 05:51:39;;;;;;;83.95;44.90;;;1.10;99.90;;;;;;4859377;29;20116;-78
2021/04/13 05:54:05;;;;;;;92.85;46.75;;;1.20;99.90;;;;;;4869706;29;20060;-77
2021/04/13 05:56:37;;;;;;;95.75;46.80;;;1.20;99.90;;;;;;4890069;29;20063;-77
2021/04/13 05:59:07;;;;;;;84.20;44.72;;;1.20;99.90;;;;;;4892838;29;20061;-78
2021/04/13 06:01:35;;;;;;;87.80;46.15;;;1.20;99.90;;;;;;4892476;29;20510;-77
2021/04/13 06:04:03;;;;;;;88.25;45.33;;;1.20;99.90;;;;;;4882622;29;20113;-78
2021/04/13 06:06:33;;;;;;;90.00;49.50;;;1.20;99.90;;;;;;4898656;29;20060;-77
2021/04/13 06:09:01;;;;;;;96.82;48.03;;;1.20;99.90;;;;;;4874563;29;20052;-79
2021/04/13 06:11:30;;;;;;;97.68;48.60;;;1.20;99.90;;;;;;4863188;29;20136;-77
2021/04/13 06:14:02;;;;;;;89.82;45.20;;;1.20;99.90;;;;;;4889088;29;20040;-78
2021/04/13 06:16:39;;;;;;;87.22;46.40;;;1.20;99.90;;;;;;4858936;29;20527;-78
2021/04/13 06:19:07;;;;;;;86.80;46.28;;;1.20;99.90;;;;;;4875570;29;20053;-76
2021/04/13 06:21:35;;;;;;;90.30;45.13;;;1.30;99.90;;;;;;4842932;29;20140;-77
2021/04/13 06:24:03;;;;;;;95.13;46.65;;;1.30;99.90;;;;;;4874936;29;20112;-78
2021/04/13 06:26:30;;;;;;;90.30;46.58;;;1.40;99.90;;;;;;4874884;29;20264;-78
2021/04/13 06:28:57;;;;;;;99.03;49.15;;;1.40;99.90;;;;;;4875428;29;20619;-77
2021/04/13 06:31:23;;;;;;;92.05;48.22;;;1.40;99.90;;;;;;4890378;29;20174;-77
2021/04/13 06:33:50;;;;;;;107.50;51.90;;;1.30;99.90;;;;;;4882017;29;20057;-78
2021/04/13 06:36:20;;;;;;;104.07;51.40;;;1.40;99.90;;;;;;4874467;29;20645;-78
2021/04/13 06:38:47;;;;;;;105.07;49.88;;;1.30;99.90;;;;;;4878630;29;20148;-78
2021/04/13 06:41:45;;;;;;;100.95;52.42;;;1.30;99.90;;;;;;4888470;29;20068;-77
2021/04/13 06:44:21;;;;;;;106.03;52.10;;;1.30;99.90;;;;;;4888327;29;20064;-78
2021/04/13 06:47:04;;;;;;;102.90;49.97;;;1.40;99.90;;;;;;4876957;29;20061;-77
2021/04/13 06:49:44;;;;;;;105.18;50.97;;;1.40;99.90;;;;;;4889687;29;20057;-77
2021/04/13 06:52:42;;;;;;;96.32;50.78;;;1.50;99.90;;;;;;4889069;29;20059;-78
2021/04/13 06:55:37;;;;;;;98.82;51.40;;;1.50;99.90;;;;;;4856989;29;20493;-76
2021/04/13 06:58:07;;;;;;;103.75;52.67;;;1.50;99.90;;;;;;4875808;29;20056;-77
2021/04/13 07:01:03;;;;;;;99.47;49.72;;;1.60;99.90;;;;;;4873823;29;20140;-76
2021/04/13 07:03:45;;;;;;;105.13;49.08;;;1.80;99.90;;;;;;4890304;29;20053;-77
2021/04/13 07:06:38;;;;;;;97.18;47.25;;;1.80;99.90;;;;;;4889190;29;20057;-77
2021/04/13 07:09:37;;;;;;;88.88;46.10;;;1.90;99.90;;;;;;4885502;29;20515;-78
2021/04/13 07:12:28;;;;;;;86.35;37.55;;;1.90;99.90;;;;;;4873593;29;20053;-78
2021/04/13 07:15:19;;;;;;;75.15;37.72;;;1.80;99.90;;;;;;4895315;29;20087;-78
2021/04/13 07:18:26;;;;;;;94.57;41.10;;;1.70;99.90;;;;;;4878953;29;20147;-76
2021/04/13 07:21:03;;;;;;;94.97;44.92;;;1.60;99.90;;;;;;4873585;29;20052;-77
2021/04/13 07:24:02;;;;;;;81.60;43.58;;;1.70;99.90;;;;;;4858622;29;20067;-77
2021/04/13 07:26:37;;;;;;;91.10;47.50;;;1.70;99.90;;;;;;4899498;29;20141;-75
2021/04/13 07:29:12;;;;;;;94.65;45.97;;;1.70;99.90;;;;;;4891015;29;20053;-78
2021/04/13 07:32:01;;;;;;;86.38;43.95;;;1.80;99.90;;;;;;4884857;29;20120;-77
2021/04/13 07:34:29;;;;;;;91.00;44.63;;;1.90;99.90;;;;;;4882542;29;20057;-77
2021/04/13 07:37:03;;;;;;;75.85;39.88;;;2.00;99.90;;;;;;4872719;29;20526;-76
2021/04/13 07:39:30;;;;;;;71.85;40.05;;;2.00;99.90;;;;;;4886414;29;20136;-77
2021/04/13 07:42:06;;;;;;;81.05;41.22;;;2.00;99.90;;;;;;4876465;29;20056;-77
2021/04/13 07:44:43;;;;;;;66.53;33.83;;;2.10;99.90;;;;;;4884656;29;20056;-77
2021/04/13 07:47:44;;;;;;;68.50;36.33;;;2.00;99.90;;;;;;4867386;29;20051;-76
2021/04/13 07:50:12;;;;;;;81.50;31.17;;;2.10;99.90;;;;;;4892171;29;20163;-78
2021/04/13 07:52:54;;;;;;;69.53;33.55;;;2.20;99.90;;;;;;4871672;29;20592;-77
2021/04/13 07:55:49;;;;;;;58.13;31.60;;;2.30;99.90;;;;;;4887684;29;20061;-77
2021/04/13 07:58:40;;;;;;;59.38;31.35;;;2.30;99.90;;;;;;4861190;29;20059;-76
2021/04/13 08:01:08;;;;;;;56.70;29.23;;;2.40;99.90;;;;;;4891278;29;20060;-77
2021/04/13 08:03:35;;;;;;;56.10;31.25;;;2.50;99.90;;;;;;4907952;29;20072;-77
2021/04/13 08:06:28;;;;;;;55.97;29.00;;;2.60;99.90;;;;;;4872390;29;20105;-77
2021/04/13 08:09:24;;;;;;;55.10;30.70;;;2.70;99.90;;;;;;4896450;29;20101;-76
2021/04/13 08:12:14;;;;;;;54.20;29.70;;;2.50;99.90;;;;;;4870788;29;20056;-77
2021/04/13 08:14:44;;;;;;;58.97;31.42;;;2.40;99.90;;;;;;4894156;29;20051;-77
2021/04/13 08:17:13;;;;;;;57.53;30.77;;;2.40;99.90;;;;;;4875630;29;20166;-76
2021/04/13 08:19:41;;;;;;;53.30;30.08;;;2.50;99.90;;;;;;4891705;29;20048;-77
2021/04/13 08:22:13;;;;;;;65.68;31.08;;;2.70;99.90;;;;;;4874154;29;20053;-76
2021/04/13 08:24:50;;;;;;;59.47;29.92;;;2.70;99.90;;;;;;4888427;29;20048;-77
2021/04/13 08:27:41;;;;;;;55.95;31.27;;;2.80;99.90;;;;;;4888008;29;20049;-76
2021/04/13 08:30:44;;;;;;;48.95;27.38;;;2.90;99.90;;;;;;4872539;29;20536;-77
2021/04/13 08:33:33;;;;;;;54.58;28.85;;;2.90;99.90;;;;;;4888129;29;20057;-76
2021/04/13 08:36:23;;;;;;;49.55;27.45;;;3.10;99.90;;;;;;4872136;29;20124;-76
2021/04/13 08:38:58;;;;;;;54.95;29.02;;;3.10;99.90;;;;;;4881403;29;20157;-77
2021/04/13 08:41:34;;;;;;;;;;;3.20;99.90;;;;;;4898242;29;20041;-77
2021/04/13 08:44:20;;;;;;;49.35;26.10;;;3.20;99.90;;;;;;4889450;29;20447;-77
2021/04/13 08:47:07;;;;;;;46.45;27.67;;;3.30;99.90;;;;;;4906564;29;20056;-79
2021/04/13 08:49:36;;;;;;;48.13;25.08;;;3.40;99.90;;;;;;4891714;29;20080;-78
2021/04/13 08:52:27;;;;;;;45.75;26.25;;;3.30;99.90;;;;;;4891633;29;20080;-77
2021/04/13 08:55:12;;;;;;;38.97;23.65;;;3.40;99.90;;;;;;4888982;29;20076;-75
2021/04/13 08:57:46;;;;;;;37.08;23.05;;;3.70;99.90;;;;;;4874918;29;20055;-76
2021/04/13 09:00:44;;;;;;;33.42;17.40;;;4.00;99.90;;;;;;4890926;29;20088;-76
2021/04/13 09:03:16;;;;;;;28.42;18.52;;;4.20;99.90;;;;;;4874701;29;20159;-76
2021/04/13 09:05:45;;;;;;;42.72;19.17;;;4.30;99.90;;;;;;4871548;29;20040;-76
2021/04/13 09:08:21;;;;;;;27.65;18.77;;;4.20;99.90;;;;;;4874642;29;20097;-76
2021/04/13 09:11:15;;;;;;;35.40;19.02;;;4.30;99.90;;;;;;4899231;29;20055;-76
2021/04/13 09:14:09;;;;;;;35.43;18.90;;;4.70;99.90;;;;;;4869039;29;20119;-76
2021/04/13 09:16:45;;;;;;;29.90;16.83;;;5.00;99.90;;;;;;4889402;29;20105;-76
2021/04/13 09:19:26;;;;;;;39.08;18.85;;;4.70;99.90;;;;;;4889037;29;20496;-76
2021/04/13 09:21:52;;;;;;;34.28;16.08;;;4.80;99.90;;;;;;4889631;29;20052;-76
2021/04/13 09:24:37;;;;;;;28.25;16.70;;;4.70;99.90;;;;;;4875551;29;20049;-77
2021/04/13 09:27:36;;;;;;;21.58;13.50;;;4.90;99.90;;;;;;4874693;29;20079;-76
2021/04/13 09:30:24;;;;;;;21.33;13.50;;;4.90;99.90;;;;;;4874492;29;20045;-77
2021/04/13 09:33:05;;;;;;;21.33;13.45;;;5.10;99.90;;;;;;4888471;29;20061;-75
2021/04/13 09:36:02;;;;;;;21.08;12.10;;;5.20;99.90;;;;;;4886674;29;20142;-79
2021/04/13 09:38:41;;;;;;;23.48;13.25;;;5.20;99.90;;;;;;4875704;29;20121;-80
2021/04/13 09:41:44;;;;;;;27.42;13.88;;;5.20;99.90;;;;;;4888700;29;20049;-76
2021/04/13 09:44:53;;;;;;;21.65;11.88;;;5.20;99.90;;;;;;4887880;29;20120;-76
2021/04/13 09:47:43;;;;;;;29.52;14.98;;;5.20;99.90;;;;;;4868295;29;20052;-77
2021/04/13 09:50:27;;;;;;;21.08;13.30;;;5.30;99.90;;;;;;4880587;29;20053;-76
2021/04/13 09:53:08;;;;;;;14.50;12.68;;;5.70;99.90;;;;;;4895127;29;20080;-77
2021/04/13 09:56:10;;;;;;;15.80;12.00;;;5.70;99.90;;;;;;4874105;29;20079;-77
2021/04/13 09:58:46;;;;;;;21.98;14.52;;;5.60;99.90;;;;;;4880524;29;20064;-77
2021/04/13 10:01:37;;;;;;;21.08;12.73;;;5.60;99.90;;;;;;4899534;29;20666;-77
2021/04/13 10:04:33;;;;;;;18.65;11.80;;;5.90;99.90;;;;;;4876758;29;20681;-76
2021/04/13 10:07:42;;;;;;;15.32;11.77;;;6.60;99.90;;;;;;4895849;29;20075;-75
2021/04/13 10:10:42;;;;;;;15.05;11.00;;;7.20;99.90;;;;;;4875826;29;20048;-76
2021/04/13 10:13:41;;;;;;;13.93;12.25;;;7.40;99.90;;;;;;4883671;29;20044;-77
2021/04/13 10:16:27;;;;;;;13.75;12.35;;;7.80;99.90;;;;;;4883868;29;20057;-76
2021/04/13 10:19:21;;;;;;;14.70;11.38;;;8.20;99.90;;;;;;4882863;29;20063;-76
2021/04/13 10:21:54;;;;;;;13.07;10.68;;;8.60;99.90;;;;;;4883634;29;20060;-77
2021/04/13 10:24:47;;;;;;;13.00;10.55;;;8.00;99.90;;;;;;4882937;29;20056;-78
2021/04/13 10:27:32;;;;;;;13.70;11.95;;;7.60;99.90;;;;;;4894034;29;20127;-77
2021/04/13 10:30:08;;;;;;;12.35;11.38;;;6.70;99.90;;;;;;4897080;29;20666;-77
2021/04/13 10:32:54;;;;;;;11.68;10.77;;;6.90;99.90;;;;;;4875028;29;20059;-76
2021/04/13 10:35:52;;;;;;;11.63;10.48;;;7.40;99.90;;;;;;4908146;29;20128;-76
2021/04/13 10:38:24;;;;;;;11.90;10.60;;;7.80;99.90;;;;;;4875864;29;20140;-77
2021/04/13 10:41:12;;;;;;;11.82;10.90;;;8.40;99.90;;;;;;4862534;29;20097;-76
2021/04/13 10:44:16;;;;;;;12.68;11.50;;;8.20;99.90;;;;;;4867065;29;20049;-76
2021/04/13 10:47:01;;;;;;;13.18;11.95;;;7.80;99.90;;;;;;4882903;29;20049;-76
2021/04/13 10:49:54;;;;;;;12.70;11.75;;;7.90;99.90;;;;;;4893346;29;20131;-74
2021/04/13 10:52:52;;;;;;;12.10;11.35;;;8.00;99.90;;;;;;4859014;29;20166;-78
2021/04/13 10:55:37;;;;;;;13.00;11.70;;;8.30;99.90;;;;;;4889459;29;20068;-74
2021/04/13 10:58:24;;;;;;;13.10;12.07;;;8.60;99.90;;;;;;4874103;29;20056;-76
2021/04/13 11:01:18;;;;;;;13.27;11.95;;;9.20;99.90;;;;;;4890998;29;20061;-76
2021/04/13 11:04:23;;;;;;;13.02;12.05;;;9.40;99.90;;;;;;4874072;29;20056;-75
2021/04/13 11:07:14;;;;;;;14.20;12.85;;;9.10;99.90;;;;;;4877359;29;20052;-76
2021/04/13 11:10:14;;;;;;;13.35;12.40;;;8.90;99.90;;;;;;4891568;29;20061;-76
2021/04/13 11:13:13;;;;;;;15.63;14.13;;;9.30;99.90;;;;;;4874852;29;20120;-76
2021/04/13 11:16:04;;;;;;;14.80;13.55;;;9.20;99.90;;;;;;4901439;29;20125;-77
2021/04/13 11:18:44;;;;;;;14.75;13.40;;;9.10;99.90;;;;;;4878108;29;20044;-76
2021/04/13 11:21:33;;;;;;;14.70;12.57;;;8.60;99.90;;;;;;4887989;29;20052;-76
2021/04/13 11:24:20;;;;;;;15.60;14.20;;;8.20;99.90;;;;;;4887945;29;20159;-75
2021/04/13 11:27:22;;;;;;;15.10;14.00;;;7.80;99.90;;;;;;4889277;29;20496;-75
2021/04/13 11:30:08;;;;;;;17.77;12.75;;;7.90;99.90;;;;;;4890126;29;20053;-76
2021/04/13 11:32:45;;;;;;;14.10;12.73;;;8.60;99.90;;;;;;4890220;29;20061;-76
2021/04/13 11:35:28;;;;;;;15.32;13.15;;;8.50;99.90;;;;;;4876793;29;20153;-75
2021/04/13 11:38:40;;;;;;;17.15;14.05;;;8.30;99.90;;;;;;4894291;29;20076;-77
2021/04/13 11:41:29;;;;;;;14.20;13.18;;;8.30;99.90;;;;;;4888110;29;20068;-76
2021/04/13 11:44:15;;;;;;;15.13;13.85;;;8.10;99.90;;;;;;4887981;29;20465;-76
2021/04/13 11:46:53;;;;;;;17.17;14.70;;;7.90;99.90;;;;;;4876828;29;20048;-77
2021/04/13 11:49:27;;;;;;;13.70;12.60;;;8.00;99.90;;;;;;4890356;29;20045;-76
2021/04/13 11:52:16;;;;;;;14.55;13.43;;;8.40;99.90;;;;;;4891664;29;20049;-76
2021/04/13 11:54:54;;;;;;;14.60;13.45;;;8.50;99.90;;;;;;4875606;29;20059;-77
2021/04/13 11:57:35;;;;;;;12.48;11.77;;;8.80;99.90;;;;;;4910771;29;20056;-75
2021/04/13 12:00:18;;;;;;;15.90;13.85;;;8.90;99.90;;;;;;4892613;29;20067;-76
2021/04/13 12:02:47;;;;;;;14.05;13.13;;;8.80;99.90;;;;;;4873409;29;20045;-77
2021/04/13 12:05:49;;;;;;;13.88;12.68;;;8.70;99.90;;;;;;4889098;29;20049;-77
2021/04/13 12:08:46;;;;;;;13.75;12.73;;;8.70;99.90;;;;;;4864563;29;20052;-76
2021/04/13 12:11:34;;;;;;;13.85;12.55;;;8.80;99.90;;;;;;4891483;29;20059;-77
2021/04/13 12:14:24;;;;;;;13.73;12.55;;;9.00;99.90;;;;;;4885105;29;20068;-77
2021/04/13 12:16:51;;;;;;;13.32;12.23;;;9.50;99.90;;;;;;4897588;29;20061;-76
2021/04/13 12:19:18;;;;;;;13.88;12.88;;;9.70;99.90;;;;;;4909725;29;20074;-77
2021/04/13 12:21:53;;;;;;;13.07;11.98;;;9.90;99.90;;;;;;4876036;29;20585;-76
2021/04/13 12:24:38;;;;;;;11.77;10.88;;;9.90;99.90;;;;;;4869074;29;20409;-76
2021/04/13 12:27:44;;;;;;;12.40;11.70;;;10.00;99.90;;;;;;4878332;29;20461;-76
2021/04/13 12:30:23;;;;;;;13.23;12.10;;;9.40;99.90;;;;;;4853711;29;20069;-76
2021/04/13 12:32:50;;;;;;;13.73;12.68;;;9.20;99.90;;;;;;4853696;29;20057;-76
2021/04/13 12:35:53;;;;;;;13.73;12.48;;;9.50;99.90;;;;;;4874913;29;20056;-76
2021/04/13 12:38:45;;;;;;;13.57;12.57;;;9.80;99.90;;;;;;4894402;29;20419;-76
2021/04/13 12:41:34;;;;;;;12.85;11.95;;;10.10;99.90;;;;;;4877657;29;20071;-76
2021/04/13 12:44:22;;;;;;;12.75;11.85;;;10.20;98.20;;;;;;4883595;29;20461;-76
2021/04/13 12:46:53;;;;;;;13.73;13.00;;;10.50;97.60;;;;;;4903008;29;20045;-76
2021/04/13 12:49:30;;;;;;;13.23;12.27;;;10.70;99.90;;;;;;4879037;29;20575;-77
2021/04/13 12:52:07;;;;;;;13.48;12.23;;;11.20;98.60;;;;;;4877334;29;20153;-77
2021/04/13 12:54:44;;;;;;;13.48;12.48;;;11.00;96.80;;;;;;4858318;29;20099;-77
2021/04/13 12:57:24;;;;;;;12.57;11.48;;;10.60;97.40;;;;;;4858047;29;20057;-77
2021/04/13 13:00:07;;;;;;;11.98;11.38;;;10.50;96.80;;;;;;4882928;29;20559;-77
2021/04/13 13:02:37;;;;;;;13.05;12.15;;;10.40;97.70;;;;;;4885304;29;20120;-77
2021/04/13 13:05:25;;;;;;;12.48;11.85;;;10.30;96.60;;;;;;4877837;29;20057;-77
2021/04/13 13:08:19;;;;;;;11.98;11.02;;;10.40;97.10;;;;;;4892984;29;20049;-76
2021/04/13 13:10:51;;;;;;;12.50;11.65;;;10.50;98.90;;;;;;4892682;29;20055;-76
2021/04/13 13:13:28;;;;;;;12.27;11.52;;;9.90;98.10;;;;;;4859510;29;20411;-77
2021/04/13 13:15:56;;;;;;;12.75;11.65;;;9.70;99.90;;;;;;4874640;29;20184;-77
2021/04/13 13:18:37;;;;;;;13.30;12.60;;;9.30;99.90;;;;;;4880404;29;20075;-78
2021/04/13 13:21:08;;;;;;;13.38;12.63;;;9.10;99.90;;;;;;4877494;29;20052;-76
2021/04/13 13:23:41;;;;;;;14.85;13.80;;;9.40;99.90;;;;;;4893117;29;20036;-78
2021/04/13 13:26:17;;;;;;;13.25;12.30;;;9.70;99.90;;;;;;4882960;29;20049;-76
2021/04/13 13:28:44;;;;;;;13.02;12.13;;;10.00;99.90;;;;;;4879280;29;20049;-77
2021/04/13 13:31:33;;;;;;;13.68;12.50;;;9.90;99.30;;;;;;4902966;29;20055;-76
2021/04/13 13:34:04;;;;;;;13.82;12.68;;;9.80;99.90;;;;;;4882756;29;20588;-76
2021/04/13 13:36:33;;;;;;;14.95;14.05;;;9.60;98.70;;;;;;4871197;29;20138;-77
2021/04/13 13:39:03;;;;;;;12.70;11.90;;;9.60;99.90;;;;;;4872195;29;20424;-77